createdAt,value
2023-02-22T00:01:51.273Z,89.67
2023-02-22T00:04:19.138Z,96.97
2023-02-22T00:06:46.976Z,96.20
2023-02-22T00:09:14.574Z,94.30
2023-02-22T00:11:45.984Z,103.50
2023-02-22T00:14:13.699Z,94.00
2023-02-22T00:16:41.307Z,101.57
2023-02-22T00:19:08.926Z,99.00
2023-02-22T00:21:36.411Z,109.70
2023-02-22T00:24:04.167Z,115.00
2023-02-22T00:26:33.888Z,109.20
2023-02-22T00:29:01.436Z,123.23
2023-02-22T00:31:28.989Z,106.47
2023-02-22T00:33:56.551Z,122.00
2023-02-22T00:36:24.100Z,131.20
2023-02-22T00:38:51.639Z,113.47
2023-02-22T00:41:19.501Z,115.63
2023-02-22T00:43:47.260Z,135.57
2023-02-22T00:46:14.846Z,122.53
2023-02-22T00:48:42.414Z,114.27
2023-02-22T00:51:09.884Z,126.97
2023-02-22T00:53:37.431Z,159.03
2023-02-22T00:56:05.878Z,117.33
2023-02-22T00:58:33.858Z,129.10
2023-02-22T01:01:01.396Z,117.43
2023-02-22T01:03:28.945Z,135.43
2023-02-22T01:05:56.467Z,116.10
2023-02-22T01:08:24.022Z,113.90
2023-02-22T01:10:51.553Z,117.97
2023-02-22T01:13:19.169Z,173.10
2023-02-22T01:15:46.683Z,125.93
2023-02-22T01:18:14.302Z,136.80
2023-02-22T01:20:41.783Z,120.03
2023-02-22T01:23:09.344Z,134.30
2023-02-22T01:25:37.078Z,165.13
2023-02-22T01:28:06.101Z,148.77
2023-02-22T01:30:34.764Z,161.00
2023-02-22T01:33:03.056Z,154.43
2023-02-22T01:35:31.567Z,184.40
2023-02-22T01:37:59.482Z,163.77
2023-02-22T01:40:34.609Z,175.37
2023-02-22T01:43:04.253Z,230.60
2023-02-22T01:45:31.715Z,259.87
2023-02-22T01:48:07.257Z,169.67
2023-02-22T01:50:38.100Z,174.40
2023-02-22T01:53:06.022Z,186.40
2023-02-22T01:55:34.616Z,156.93
2023-02-22T01:58:02.745Z,212.37
2023-02-22T02:00:30.220Z,189.07
2023-02-22T02:03:05.057Z,197.33
2023-02-22T02:05:33.385Z,185.73
2023-02-22T02:08:05.417Z,159.07
2023-02-22T02:10:32.993Z,207.07
2023-02-22T02:13:00.621Z,201.27
2023-02-22T02:15:34.566Z,193.27
2023-02-22T02:18:04.466Z,121.00
2023-02-22T02:20:31.944Z,154.03
2023-02-22T02:23:38.184Z,117.63
2023-02-22T02:26:21.310Z,126.80
2023-02-22T02:28:48.864Z,95.13
2023-02-22T02:31:28.380Z,122.20
2023-02-22T02:34:08.181Z,119.83
2023-02-22T02:36:40.626Z,113.33
2023-02-22T02:39:19.056Z,105.77
2023-02-22T02:41:49.061Z,136.40
2023-02-22T02:44:23.705Z,129.87
2023-02-22T02:46:56.216Z,146.57
2023-02-22T02:49:27.950Z,166.83
2023-02-22T02:51:57.018Z,130.73
2023-02-22T02:54:24.880Z,155.33
2023-02-22T02:56:52.522Z,148.70
2023-02-22T02:59:25.914Z,174.03
2023-02-22T03:09:27.725Z,114.77
2023-02-22T03:12:01.570Z,149.70
2023-02-22T03:14:41.541Z,93.87
2023-02-22T03:17:14.440Z,116.57
2023-02-22T03:19:52.215Z,130.60
2023-02-22T03:22:32.068Z,130.03
2023-02-22T03:25:01.856Z,109.27
2023-02-22T03:27:32.689Z,124.53
2023-02-22T03:30:03.017Z,103.23
2023-02-22T03:32:33.935Z,103.23
2023-02-22T03:35:10.230Z,92.87
2023-02-22T03:37:43.068Z,87.10
2023-02-22T03:40:12.623Z,177.67
2023-02-22T03:42:41.356Z,103.97
2023-02-22T03:45:09.333Z,132.63
2023-02-22T03:47:41.893Z,99.10
2023-02-22T03:50:12.680Z,98.67
2023-02-22T03:52:40.238Z,100.17
2023-02-22T03:55:07.854Z,115.77
2023-02-22T03:57:36.825Z,101.20
2023-02-22T04:00:07.847Z,117.93
2023-02-22T04:02:35.420Z,90.83
2023-02-22T04:05:02.962Z,80.87
2023-02-22T04:07:30.476Z,84.63
2023-02-22T04:09:58.067Z,67.13
2023-02-22T04:12:25.677Z,86.80
2023-02-22T04:14:53.196Z,83.83
2023-02-22T04:17:20.753Z,68.60
2023-02-22T04:19:48.248Z,86.40
2023-02-22T04:22:15.969Z,73.73
2023-02-22T04:24:43.544Z,67.77
2023-02-22T04:27:11.156Z,76.47
2023-02-22T04:29:38.668Z,61.43
2023-02-22T04:32:06.846Z,66.73
2023-02-22T04:34:34.430Z,68.10
2023-02-22T04:37:02.152Z,78.87
2023-02-22T04:39:29.871Z,63.13
2023-02-22T04:41:57.446Z,55.37
2023-02-22T04:44:24.983Z,64.70
2023-02-22T04:46:52.650Z,63.17
2023-02-22T04:49:20.174Z,52.50
2023-02-22T04:51:47.715Z,68.43
2023-02-22T04:54:15.280Z,57.87
2023-02-22T04:56:42.846Z,56.83
2023-02-22T04:59:10.344Z,73.10
2023-02-22T05:01:38.235Z,53.80
2023-02-22T05:04:06.437Z,62.00
2023-02-22T05:06:34.015Z,51.90
2023-02-22T05:09:01.533Z,43.40
2023-02-22T05:11:32.244Z,50.73
2023-02-22T05:13:59.996Z,41.93
2023-02-22T05:16:27.590Z,46.33
2023-02-22T05:18:55.131Z,51.80
2023-02-22T05:21:23.762Z,59.03
2023-02-22T05:23:51.364Z,52.53
2023-02-22T05:26:18.935Z,47.20
2023-02-22T05:28:46.468Z,34.17
2023-02-22T05:31:14.107Z,43.60
2023-02-22T05:33:41.817Z,40.23
2023-02-22T05:36:09.530Z,49.30
2023-02-22T05:38:37.912Z,60.03
2023-02-22T05:41:05.512Z,57.10
2023-02-22T05:43:33.065Z,54.53
2023-02-22T05:46:00.556Z,47.50
2023-02-22T05:48:28.127Z,48.83
2023-02-22T05:50:55.671Z,46.40
2023-02-22T05:53:23.277Z,50.57
2023-02-22T05:55:51.622Z,48.10
2023-02-22T05:58:19.281Z,43.03
2023-02-22T06:00:46.789Z,54.57
2023-02-22T06:03:14.370Z,53.27
2023-02-22T06:05:42.099Z,60.47
2023-02-22T06:08:09.733Z,51.70
2023-02-22T06:10:37.652Z,51.13
2023-02-22T06:13:05.720Z,46.83
2023-02-22T06:15:33.456Z,54.40
2023-02-22T06:18:01.487Z,66.50
2023-02-22T06:20:29.987Z,51.10
2023-02-22T06:22:58.210Z,72.23
2023-02-22T06:25:27.459Z,52.00
2023-02-22T06:27:55.121Z,56.43
2023-02-22T06:30:24.073Z,59.07
2023-02-22T06:32:51.666Z,55.43
2023-02-22T06:35:19.634Z,55.80
2023-02-22T06:37:47.372Z,65.87
2023-02-22T06:40:15.327Z,69.63
2023-02-22T06:42:42.962Z,57.73
2023-02-22T06:45:10.773Z,68.93
2023-02-22T06:47:39.047Z,57.67
2023-02-22T06:50:06.674Z,73.57
2023-02-22T06:52:34.233Z,86.77
2023-02-22T06:55:01.748Z,75.80
2023-02-22T06:57:29.261Z,69.33
2023-02-22T06:59:56.750Z,113.77
2023-02-22T07:02:24.345Z,90.07
2023-02-22T07:04:51.818Z,88.93
2023-02-22T07:07:19.431Z,119.13
2023-02-22T07:09:47.403Z,98.20
2023-02-22T07:12:14.932Z,100.10
2023-02-22T07:14:42.444Z,106.97
2023-02-22T07:17:10.018Z,87.10
2023-02-22T07:19:37.533Z,96.00
2023-02-22T07:22:05.194Z,96.77
2023-02-22T07:24:32.699Z,80.57
2023-02-22T07:27:01.199Z,81.10
2023-02-22T07:29:28.706Z,69.30
2023-02-22T07:31:56.497Z,73.80
2023-02-22T07:34:24.067Z,75.07
2023-02-22T07:36:51.761Z,77.57
2023-02-22T07:39:19.552Z,76.77
2023-02-22T07:41:47.353Z,65.40
2023-02-22T07:44:14.911Z,61.93
2023-02-22T07:46:42.507Z,65.23
2023-02-22T07:49:09.985Z,50.87
2023-02-22T07:51:37.569Z,61.63
2023-02-22T07:54:05.137Z,55.23
2023-02-22T07:56:32.681Z,60.77
2023-02-22T07:59:00.193Z,64.83
2023-02-22T08:01:27.887Z,54.87
2023-02-22T08:03:55.512Z,61.93
2023-02-22T08:06:23.136Z,58.67
2023-02-22T08:08:50.664Z,58.13
2023-02-22T08:11:18.658Z,62.77
2023-02-22T08:13:46.486Z,59.10
2023-02-22T08:16:14.063Z,52.30
2023-02-22T08:18:41.613Z,51.63
2023-02-22T08:21:09.170Z,46.87
2023-02-22T08:23:36.687Z,45.00
2023-02-22T08:26:05.280Z,41.70
2023-02-22T08:28:32.853Z,43.13
2023-02-22T08:31:00.409Z,40.67
2023-02-22T08:33:28.062Z,43.20
2023-02-22T08:35:55.697Z,44.10
2023-02-22T08:38:24.538Z,36.93
2023-02-22T08:40:52.403Z,43.17
2023-02-22T08:43:20.788Z,39.60
2023-02-22T08:45:48.884Z,42.57
2023-02-22T08:48:16.710Z,34.70
2023-02-22T08:50:44.403Z,35.17
2023-02-22T08:53:12.566Z,36.97
2023-02-22T08:55:40.778Z,35.70
2023-02-22T08:58:08.436Z,35.97
2023-02-22T09:00:36.392Z,33.23
2023-02-22T09:03:04.364Z,37.73
2023-02-22T09:05:32.520Z,29.90
2023-02-22T09:08:00.973Z,32.77
2023-02-22T09:10:30.297Z,26.93
2023-02-22T09:12:57.868Z,29.47
2023-02-22T09:15:26.285Z,25.13
2023-02-22T09:17:54.081Z,31.27
2023-02-22T09:20:23.204Z,27.07
2023-02-22T09:22:50.883Z,29.10
2023-02-22T09:25:18.926Z,30.47
2023-02-22T09:27:48.108Z,23.47
2023-02-22T09:30:24.379Z,26.57
2023-02-22T09:32:53.218Z,22.00
2023-02-22T09:35:21.128Z,23.13
2023-02-22T09:37:48.719Z,23.60
2023-02-22T09:40:19.248Z,24.50
2023-02-22T09:42:52.566Z,19.60
2023-02-22T09:45:24.547Z,19.80
2023-02-22T09:48:01.325Z,20.77
2023-02-22T09:50:35.307Z,20.70
2023-02-22T09:53:08.660Z,20.50
2023-02-22T09:55:41.399Z,21.43
2023-02-22T09:58:23.252Z,19.17
2023-02-22T10:00:52.428Z,22.50
2023-02-22T10:03:39.597Z,25.20
2023-02-22T10:06:07.209Z,20.00
2023-02-22T10:08:35.196Z,19.97
2023-02-22T10:11:06.726Z,21.13
2023-02-22T10:13:58.310Z,20.90
2023-02-22T10:16:28.663Z,21.00
2023-02-22T10:19:15.690Z,19.07
2023-02-22T10:21:50.157Z,17.53
2023-02-22T10:24:33.170Z,19.07
2023-02-22T10:27:01.520Z,22.77
2023-02-22T10:29:31.869Z,16.63
2023-02-22T10:32:00.923Z,17.30
2023-02-22T10:34:31.286Z,20.07
2023-02-22T10:37:17.389Z,21.03
2023-02-22T10:39:45.692Z,18.90
2023-02-22T10:42:13.246Z,16.77
2023-02-22T10:44:41.275Z,17.73
2023-02-22T10:47:13.120Z,20.43
2023-02-22T10:49:42.965Z,16.87
2023-02-22T10:52:14.911Z,21.00
2023-02-22T10:54:45.317Z,20.43
2023-02-22T10:57:13.044Z,20.30
2023-02-22T10:59:41.743Z,18.03
2023-02-22T11:02:18.625Z,16.30
2023-02-22T11:04:51.225Z,17.30
2023-02-22T11:07:20.700Z,17.10
2023-02-22T11:09:50.315Z,16.87
2023-02-22T11:12:19.388Z,18.83
2023-02-22T11:14:46.911Z,15.90
2023-02-22T11:17:18.812Z,16.47
2023-02-22T11:19:47.876Z,16.37
2023-02-22T11:22:21.956Z,18.20
2023-02-22T11:24:51.790Z,12.03
2023-02-22T11:27:25.112Z,16.67
2023-02-22T11:29:53.246Z,19.97
2023-02-22T11:32:21.647Z,16.07
2023-02-22T11:34:52.857Z,15.37
2023-02-22T11:37:22.514Z,16.70
2023-02-22T11:40:03.969Z,14.10
2023-02-22T11:42:31.533Z,14.70
2023-02-22T11:45:13.640Z,15.67
2023-02-22T11:47:50.180Z,18.40
2023-02-22T11:50:18.751Z,15.93
2023-02-22T11:52:49.893Z,14.87
2023-02-22T11:55:43.276Z,15.83
2023-02-22T11:58:30.710Z,14.93
2023-02-22T12:00:58.246Z,16.70
2023-02-22T12:03:33.558Z,15.37
2023-02-22T12:06:08.657Z,18.70
2023-02-22T12:08:39.263Z,16.17
2023-02-22T12:11:12.786Z,12.80
2023-02-22T12:13:46.380Z,14.73
2023-02-22T12:16:20.118Z,15.13
2023-02-22T12:19:00.099Z,13.77
2023-02-22T12:21:28.260Z,15.87
2023-02-22T12:24:08.095Z,13.63
2023-02-22T12:26:40.785Z,15.80
2023-02-22T12:29:27.270Z,16.00
2023-02-22T12:31:54.894Z,15.07
2023-02-22T12:34:28.512Z,14.80
2023-02-22T12:37:00.199Z,13.87
2023-02-22T12:39:40.890Z,16.67
2023-02-22T12:42:17.741Z,13.40
2023-02-22T12:44:47.288Z,16.40
2023-02-22T12:47:16.734Z,16.20
2023-02-22T12:49:47.396Z,17.13
2023-02-22T12:52:22.119Z,14.37
2023-02-22T12:54:55.508Z,13.23
2023-02-22T12:57:41.848Z,18.57
2023-02-22T13:00:12.696Z,14.63
2023-02-22T13:02:58.348Z,14.83
2023-02-22T13:05:26.119Z,14.10
2023-02-22T13:07:59.537Z,14.53
2023-02-22T13:10:27.103Z,14.33
2023-02-22T13:12:58.447Z,14.27
2023-02-22T13:15:33.504Z,12.87
2023-02-22T13:18:01.904Z,15.20
2023-02-22T13:20:32.776Z,17.13
2023-02-22T13:23:06.272Z,14.50
2023-02-22T13:25:46.091Z,16.57
2023-02-22T13:28:13.713Z,17.90
2023-02-22T13:30:46.060Z,14.00
2023-02-22T13:33:13.734Z,14.43
2023-02-22T13:36:02.407Z,13.60
2023-02-22T13:38:33.463Z,14.93
2023-02-22T13:41:01.060Z,14.33
2023-02-22T13:43:28.632Z,14.73
2023-02-22T13:45:56.270Z,17.60
2023-02-22T13:48:42.674Z,13.77
2023-02-22T13:51:14.424Z,14.60
2023-02-22T13:53:47.874Z,12.73
2023-02-22T13:56:16.406Z,16.00
2023-02-22T13:58:48.024Z,15.97
2023-02-22T14:01:34.259Z,16.07
2023-02-22T14:04:23.673Z,16.13
2023-02-22T14:06:51.463Z,13.57
2023-02-22T14:09:37.725Z,16.13
2023-02-22T14:12:05.438Z,17.13
2023-02-22T14:14:32.970Z,12.90
2023-02-22T14:17:19.289Z,14.57
2023-02-22T14:20:05.591Z,12.23
2023-02-22T14:22:33.680Z,13.30
2023-02-22T14:25:01.336Z,12.57
2023-02-22T14:27:39.483Z,14.00
2023-02-22T14:30:07.331Z,10.80
2023-02-22T14:32:35.841Z,12.47
2023-02-22T14:35:29.871Z,12.23
2023-02-22T14:38:01.413Z,11.80
2023-02-22T14:40:30.874Z,13.40
2023-02-22T14:43:19.143Z,12.77
2023-02-22T14:45:50.154Z,13.50
2023-02-22T14:48:35.472Z,15.10
2023-02-22T14:51:20.356Z,12.83
2023-02-22T14:53:49.263Z,15.33
2023-02-22T14:56:24.469Z,13.37
2023-02-22T14:58:54.477Z,13.97
2023-02-22T15:01:47.504Z,14.27
2023-02-22T15:04:17.903Z,13.37
2023-02-22T15:06:45.529Z,15.97
2023-02-22T15:09:20.900Z,15.93
2023-02-22T15:11:48.489Z,15.43
2023-02-22T15:14:25.684Z,14.77
2023-02-22T15:16:55.456Z,15.23
2023-02-22T15:19:27.531Z,14.00
2023-02-22T15:21:56.515Z,15.17
2023-02-22T15:24:37.684Z,16.00
2023-02-22T15:27:08.660Z,16.17
2023-02-22T15:29:37.643Z,14.73
2023-02-22T15:32:19.193Z,15.10
2023-02-22T15:34:46.867Z,13.83
2023-02-22T15:37:22.345Z,14.67
2023-02-22T15:39:49.952Z,15.93
2023-02-22T15:42:18.207Z,15.23
2023-02-22T15:44:47.564Z,16.03
2023-02-22T15:47:26.000Z,13.73
2023-02-22T15:50:12.899Z,15.63
2023-02-22T15:52:41.379Z,18.10
2023-02-22T15:55:11.675Z,17.43
2023-02-22T15:57:42.273Z,13.83
2023-02-22T16:00:20.322Z,15.33
2023-02-22T16:02:48.301Z,17.37
2023-02-22T16:05:16.127Z,16.73
2023-02-22T16:07:46.023Z,17.77
2023-02-22T16:10:39.762Z,16.53
2023-02-22T16:13:10.019Z,15.97
2023-02-22T16:15:41.960Z,16.93
2023-02-22T16:18:25.095Z,15.60
2023-02-22T16:20:59.909Z,14.87
2023-02-22T16:23:28.809Z,17.43
2023-02-22T16:26:15.287Z,15.40
2023-02-22T16:28:48.099Z,15.80
2023-02-22T16:31:17.249Z,14.93
2023-02-22T16:33:46.479Z,16.60
2023-02-22T16:36:14.423Z,15.33
2023-02-22T16:38:42.005Z,16.87
2023-02-22T16:41:10.351Z,19.33
2023-02-22T16:43:41.248Z,17.43
2023-02-22T16:46:09.878Z,23.43
2023-02-22T16:48:42.265Z,17.27
2023-02-22T16:51:11.616Z,18.80
2023-02-22T16:53:39.140Z,17.67
2023-02-22T16:56:09.010Z,17.47
2023-02-22T16:58:38.811Z,17.43
2023-02-22T17:01:06.750Z,19.17
2023-02-22T17:03:34.279Z,20.10
2023-02-22T17:06:02.140Z,19.10
2023-02-22T17:08:29.652Z,20.10
2023-02-22T17:10:58.709Z,19.33
2023-02-22T17:13:27.518Z,23.73
2023-02-22T17:15:55.610Z,20.13
2023-02-22T17:18:24.160Z,22.13
2023-02-22T17:20:53.137Z,23.03
2023-02-22T17:23:21.865Z,21.97
2023-02-22T17:25:51.714Z,20.43
2023-02-22T17:28:19.252Z,20.90
2023-02-22T17:30:47.080Z,18.87
2023-02-22T17:33:15.888Z,18.70
2023-02-22T17:35:43.478Z,20.97
2023-02-22T17:38:11.349Z,19.57
2023-02-22T17:40:39.595Z,21.10
2023-02-22T17:43:08.226Z,22.47
2023-02-22T17:45:38.523Z,20.33
2023-02-22T17:48:06.189Z,22.53
2023-02-22T17:50:34.006Z,21.30
2023-02-22T17:53:01.625Z,25.37
2023-02-22T17:55:29.099Z,26.37
2023-02-22T17:57:57.539Z,23.87
2023-02-22T18:00:26.112Z,22.60
2023-02-22T18:02:53.710Z,22.77
2023-02-22T18:05:21.305Z,23.37
2023-02-22T18:07:48.874Z,26.67
2023-02-22T18:10:16.391Z,23.27
2023-02-22T18:12:43.997Z,27.07
2023-02-22T18:15:11.546Z,24.30
2023-02-22T18:17:39.349Z,24.20
2023-02-22T18:20:07.005Z,24.03
2023-02-22T18:22:36.948Z,22.00
2023-02-22T18:25:04.600Z,21.47
2023-02-22T18:27:32.150Z,31.97
2023-02-22T18:29:59.684Z,26.63
2023-02-22T18:32:27.248Z,28.90
2023-02-22T18:34:54.806Z,28.90
2023-02-22T18:37:22.330Z,26.90
2023-02-22T18:39:49.994Z,24.43
2023-02-22T18:42:17.498Z,24.37
2023-02-22T18:44:45.051Z,25.27
2023-02-22T18:47:12.623Z,25.87
2023-02-22T18:49:40.177Z,26.27
2023-02-22T18:52:07.728Z,27.47
2023-02-22T18:54:35.369Z,31.03
2023-02-22T18:57:02.857Z,26.77
2023-02-22T18:59:30.654Z,28.90
2023-02-22T19:01:58.305Z,24.13
2023-02-22T19:04:25.981Z,28.67
2023-02-22T19:06:56.862Z,29.63
2023-02-22T19:09:25.114Z,26.20
2023-02-22T19:11:52.834Z,28.70
2023-02-22T19:14:20.690Z,31.23
2023-02-22T19:16:49.972Z,28.27
2023-02-22T19:19:17.938Z,29.47
2023-02-22T19:21:45.442Z,29.63
2023-02-22T19:24:13.026Z,28.90
2023-02-22T19:26:40.557Z,30.17
2023-02-22T19:29:10.473Z,28.33
2023-02-22T19:31:40.099Z,27.50
2023-02-22T19:34:09.420Z,29.20
2023-02-22T19:36:41.033Z,27.37
2023-02-22T19:39:08.896Z,27.40
2023-02-22T19:41:36.521Z,28.77
2023-02-22T19:44:04.322Z,27.70
2023-02-22T19:46:31.899Z,28.57
2023-02-22T19:48:59.508Z,28.47
2023-02-22T19:51:28.238Z,33.47
2023-02-22T19:53:57.775Z,36.47
2023-02-22T19:56:25.470Z,31.43
2023-02-22T19:58:54.257Z,28.23
2023-02-22T20:01:23.752Z,31.37
2023-02-22T20:03:55.327Z,28.60
2023-02-22T20:06:23.670Z,32.47
2023-02-22T20:08:51.227Z,31.50
2023-02-22T20:11:19.173Z,32.47
2023-02-22T20:13:47.175Z,32.83
2023-02-22T20:16:15.126Z,32.13
2023-02-22T20:18:46.394Z,32.07
2023-02-22T20:21:19.253Z,34.53
2023-02-22T20:23:47.104Z,32.73
2023-02-22T20:26:16.800Z,29.77
2023-02-22T20:28:44.363Z,39.70
2023-02-22T20:31:12.782Z,36.33
2023-02-22T20:33:41.291Z,34.67
2023-02-22T20:36:10.256Z,34.53
2023-02-22T20:38:38.578Z,33.90
2023-02-22T20:41:10.110Z,34.03
2023-02-22T20:43:37.785Z,40.77
2023-02-22T20:46:05.496Z,34.00
2023-02-22T20:48:33.608Z,38.13
2023-02-22T20:51:08.181Z,37.10
2023-02-22T20:53:35.840Z,37.07
2023-02-22T20:56:03.414Z,37.43
2023-02-22T20:58:31.047Z,39.50
2023-02-22T21:01:03.844Z,35.60
2023-02-22T21:03:33.139Z,34.40
2023-02-22T21:06:00.647Z,40.53
2023-02-22T21:08:28.205Z,37.17
2023-02-22T21:10:55.700Z,35.67
2023-02-22T21:13:23.516Z,37.13
2023-02-22T21:15:51.732Z,37.33
2023-02-22T21:18:20.632Z,35.63
2023-02-22T21:20:48.517Z,39.70
2023-02-22T21:23:16.563Z,36.63
2023-02-22T21:25:50.871Z,41.77
2023-02-22T21:28:18.377Z,38.57
2023-02-22T21:30:46.385Z,35.90
2023-02-22T21:33:14.299Z,39.27
2023-02-22T21:35:41.883Z,38.90
2023-02-22T21:38:10.112Z,39.00
2023-02-22T21:40:37.642Z,38.27
2023-02-22T21:43:05.908Z,43.47
2023-02-22T21:45:33.471Z,37.23
2023-02-22T21:48:01.067Z,41.97
2023-02-22T21:50:30.212Z,42.33
2023-02-22T21:52:57.935Z,43.10
2023-02-22T21:55:25.474Z,43.57
2023-02-22T21:57:53.114Z,44.67
2023-02-22T22:00:20.677Z,40.10
2023-02-22T22:02:48.823Z,40.57
2023-02-22T22:05:16.366Z,40.93
2023-02-22T22:07:44.484Z,42.80
2023-02-22T22:10:13.114Z,40.97
2023-02-22T22:12:40.667Z,47.33
2023-02-22T22:15:08.396Z,41.80
2023-02-22T22:17:35.931Z,39.97
2023-02-22T22:20:03.457Z,40.60
2023-02-22T22:22:31.012Z,42.33
2023-02-22T22:24:58.508Z,45.00
2023-02-22T22:27:26.104Z,43.83
2023-02-22T22:29:53.616Z,43.37
2023-02-22T22:32:21.207Z,43.33
2023-02-22T22:34:48.728Z,47.37
2023-02-22T22:37:16.267Z,42.27
2023-02-22T22:39:43.800Z,44.67
2023-02-22T22:42:11.336Z,45.10
2023-02-22T22:44:38.858Z,44.43
2023-02-22T22:47:06.448Z,43.03
2023-02-22T22:49:33.993Z,41.90
2023-02-22T22:52:01.568Z,44.47
2023-02-22T22:54:29.077Z,44.63
2023-02-22T22:56:56.690Z,46.20
2023-02-22T22:59:24.340Z,43.13
2023-02-22T23:01:51.925Z,41.97
2023-02-22T23:04:19.400Z,44.40
2023-02-22T23:06:50.700Z,48.33
2023-02-22T23:09:19.898Z,45.13
2023-02-22T23:11:51.655Z,43.57
2023-02-22T23:14:20.344Z,44.70
2023-02-22T23:16:52.467Z,48.17
2023-02-22T23:19:20.398Z,45.63
2023-02-22T23:21:48.764Z,44.70
2023-02-22T23:24:17.703Z,44.93
2023-02-22T23:26:45.838Z,45.03
2023-02-22T23:29:13.384Z,46.07
2023-02-22T23:31:41.021Z,48.73
2023-02-22T23:34:08.568Z,47.27
2023-02-22T23:36:36.092Z,50.90
2023-02-22T23:39:03.720Z,48.30
2023-02-22T23:41:31.223Z,45.43
2023-02-22T23:43:58.833Z,46.07
2023-02-22T23:46:26.381Z,49.13
2023-02-22T23:48:54.835Z,43.77
2023-02-22T23:51:23.775Z,48.27
2023-02-22T23:53:51.952Z,45.80
2023-02-22T23:56:20.385Z,48.03
2023-02-22T23:58:48.948Z,49.57
